Latest Weather Observations for Applethorpe

IDN60801

Issued at 8:33 pm EST Saturday 30 July 2016 (issued every 30 minutes, with the page automatically refreshed every 10 minutes)

About weather observations | Map of weather stations | Latest weather observations for NSW | Other Formats
Station Details ID: 041175 Name: APPLETHORPE Lat: -28.62 Lon: 151.95 Height: 871.6 m
Data from the previous 72 hours. | See also: Recent months at Applethorpe
Date/Time
EST
Temp
°C
App
Temp
°C
Dew
Point
°C
Rel
Hum
%
Delta-T
°C
Wind Press
QNH
hPa
Press
MSL
hPa
Rain since
9am
mm
Dir  Spd
km/h
Gust
km/h
Spd
kts
Gust
kts
30/08:30pm 3.7 2.1 2.3 91 0.6 CALM 0 0 0 0 1021.8 1022.1 0.0
30/08:00pm 4.5 3.0 2.9 89 0.7 CALM 0 0 0 0 1021.8 1022.1 0.0
30/07:30pm 5.4 3.8 2.6 82 1.2 CALM 0 0 0 0 1021.9 1022.2 0.0
30/07:00pm 6.0 4.4 2.5 78 1.5 CALM 0 0 0 0 1021.6 1021.8 0.0
30/06:30pm 7.3 5.8 2.8 73 2.0 CALM 0 2 0 1 1021.2 1021.4 0.0
30/06:00pm 9.0 7.7 4.0 71 2.3 CALM 0 2 0 1 1020.7 1021.0 0.0
30/05:30pm 11.4 9.4 2.1 53 4.2 NE 2 7 1 4 1020.4 1020.6 0.0
30/05:00pm 13.3 10.5 1.9 46 5.2 ENE 6 9 3 5 1020.2 1020.4 0.0
30/04:30pm 15.2 12.0 0.8 37 6.5 ENE 7 11 4 6 1020.0 1020.2 0.0
30/04:00pm 16.3 13.2 1.3 36 6.9 ENE 7 11 4 6 1019.9 1020.1 0.0
30/03:30pm 16.6 13.5 0.2 33 7.4 NE 6 11 3 6 1019.8 1020.0 0.0
30/03:00pm 17.1 14.1 1.1 34 7.4 ENE 6 13 3 7 1019.7 1019.8 0.0
30/02:30pm 17.2 14.2 0.9 33 7.5 NE 6 11 3 6 1019.8 1020.0 0.0
30/02:00pm 16.9 13.7 -0.3 31 7.7 NE 6 13 3 7 1020.0 1020.2 0.0
30/01:30pm 16.2 13.1 -2.7 27 8.0 N 4 7 2 4 1020.1 1020.3 0.0
30/01:00pm 16.4 13.4 -1.9 28 7.9 ENE 4 7 2 4 1020.4 1020.6 0.0
30/12:30pm 15.6 12.5 0.2 35 6.9 E 6 9 3 5 1020.9 1021.1 0.0
30/12:00pm 16.0 12.7 0.2 34 7.1 ENE 7 13 4 7 1021.3 1021.5 0.0
30/11:30am 15.9 12.7 1.0 36 6.8 E 7 15 4 8 1021.5 1021.7 0.0
30/11:00am 15.6 12.4 0.8 36 6.7 E 7 13 4 7 1021.7 1022.0 0.0
30/10:30am 14.4 10.8 0.5 38 6.2 ENE 9 15 5 8 1022.0 1022.3 0.0
30/10:00am 13.7 10.0 -0.3 38 6.1 E 9 17 5 9 1022.2 1022.4 0.0
30/09:30am 12.0 10.1 0.8 46 4.9 CALM 0 4 0 2 1022.4 1022.6 0.0
30/09:00am 8.1 7.0 5.1 81 1.4 CALM 0 4 0 2 1022.5 1022.7 0.0
30/08:30am 5.5 4.3 4.4 93 0.5 CALM 0 0 0 0 1022.3 1022.5 0.0
30/08:00am 1.7 -0.1 0.9 94 0.3 CALM 0 0 0 0 1022.2 1022.4 0.0
30/07:30am -0.7 - - - - CALM 0 0 0 0 1021.7 1022.0 0.0
30/07:00am -1.6 - - - - CALM 0 0 0 0 1021.7 1022.0 0.0
30/06:30am -1.6 - - - - CALM 0 0 0 0 1021.3 1021.5 0.0
30/06:00am -1.7 - - - - CALM 0 0 0 0 1021.1 1021.3 0.0
30/05:30am -1.6 - - - - W 4 4 2 2 1020.9 1021.1 0.0
30/05:00am -1.2 - - - - WSW 2 2 1 1 1020.9 1021.1 0.0
30/04:30am -1.1 - - - - CALM 0 0 0 0 1020.6 1020.8 0.0
30/04:00am -0.9 - - - - CALM 0 0 0 0 1020.5 1020.7 0.0
30/03:30am -0.7 - - - - CALM 0 0 0 0 1020.6 1020.8 0.0
30/03:00am 0.6 -2.5 0.3 98 0.1 SW 6 7 3 4 1021.1 1021.3 0.0
30/02:30am -0.8 - - - - SSW 4 6 2 3 1021.3 1021.5 0.0
30/02:00am 0.1 - - - - SSW 6 6 3 3 1021.4 1021.6 0.0
30/01:30am 0.7 -2.0 0.4 98 0.1 SW 4 6 2 3 1021.6 1021.8 0.0
30/01:00am 0.9 -1.7 0.9 100 0.0 SW 4 6 2 3 1022.0 1022.3 0.0
30/12:30am 1.3 -0.9 1.3 100 0.0 W 2 2 1 1 1022.2 1022.4 0.0
30/12:00am 2.4 0.4 2.2 99 0.1 W 2 4 1 2 1022.4 1022.6 0.0
 
Date/Time
EST
Temp
°C
App
Temp
°C
Dew
Point
°C
Rel
Hum
%
Delta-T
°C
Wind Press
QNH
hPa
Press
MSL
hPa
Rain since
9am
mm
Dir  Spd
km/h
Gust
km/h
Spd
kts
Gust
kts
29/11:30pm 1.9 -0.6 1.4 96 0.2 NW 4 6 2 3 1022.5 1022.7 0.0
29/11:00pm 2.2 0.4 1.2 93 0.4 CALM 0 0 0 0 1022.6 1022.8 0.0
29/10:30pm 2.9 1.2 1.7 92 0.5 CALM 0 0 0 0 1022.8 1023.1 0.0
29/10:00pm 4.7 2.3 2.3 84 1.0 WSW 4 6 2 3 1022.9 1023.2 0.0
29/09:30pm 6.2 3.9 2.8 79 1.5 SW 4 6 2 3 1022.9 1023.2 0.0
29/09:00pm 7.2 4.8 2.1 70 2.2 WSW 4 6 2 3 1022.8 1023.1 0.0
29/08:30pm 7.9 5.1 1.9 66 2.6 SW 6 9 3 5 1022.6 1022.8 0.0
29/08:00pm 8.5 4.9 0.7 58 3.3 WSW 9 13 5 7 1022.4 1022.6 0.0
29/07:30pm 8.8 5.7 0.2 55 3.6 WSW 6 9 3 5 1022.2 1022.4 0.0
29/07:00pm 9.2 6.2 0.5 54 3.7 WSW 6 9 3 5 1021.8 1022.1 0.0
29/06:30pm 10.2 7.0 0.7 51 4.1 W 7 11 4 6 1021.7 1022.0 0.0
29/06:00pm 10.6 7.4 0.9 51 4.2 W 7 11 4 6 1021.6 1021.8 0.0
29/05:30pm 11.8 8.6 0.6 46 4.9 W 7 9 4 5 1021.2 1021.4 0.0
29/05:00pm 13.2 9.8 -0.5 39 5.9 W 7 13 4 7 1021.2 1021.4 0.0
29/04:30pm 14.8 11.5 -1.2 33 6.9 W 6 13 3 7 1021.2 1021.4 0.0
29/04:00pm 15.7 11.8 -1.4 31 7.4 W 9 15 5 8 1021.2 1021.4 0.0
29/03:30pm 15.8 11.5 -1.6 30 7.5 WSW 11 15 6 8 1021.2 1021.4 0.0
29/03:00pm 16.4 12.6 -0.8 31 7.6 WSW 9 15 5 8 1021.2 1021.4 0.0
29/02:30pm 16.5 12.7 -0.7 31 7.6 W 9 15 5 8 1021.2 1021.4 0.0
29/02:00pm 16.7 13.0 -3.3 25 8.4 WSW 7 13 4 7 1021.4 1021.6 0.0
29/01:30pm 17.1 12.9 -3.7 24 8.7 W 9 17 5 9 1021.7 1022.0 0.0
29/01:00pm 16.9 12.8 -3.3 25 8.5 WSW 9 17 5 9 1021.9 1022.2 0.0
29/12:30pm 16.3 12.5 -3.7 25 8.3 WSW 7 15 4 8 1022.4 1022.6 0.0
29/12:00pm 16.7 12.5 -4.2 23 8.6 WSW 9 17 5 9 1023.0 1023.3 0.0
29/11:30am 15.4 11.1 -5.2 24 8.2 WSW 9 15 5 8 1023.5 1023.7 0.0
29/11:00am 14.6 11.3 -1.6 32 6.9 SW 6 9 3 5 1024.0 1024.3 0.0
29/10:30am 14.0 10.5 -2.7 31 6.9 W 6 9 3 5 1024.2 1024.5 0.0
29/10:00am 12.8 9.7 -0.1 41 5.6 SW 6 7 3 4 1024.6 1024.8 0.0
29/09:30am 11.7 8.6 0.1 45 5.0 WSW 6 9 3 5 1024.6 1024.8 0.0
29/09:00am 9.7 8.2 2.8 62 3.1 CALM 0 4 0 2 1024.6 1024.8 0.0
29/08:30am 5.6 4.1 3.1 84 1.1 CALM 0 0 0 0 1024.6 1024.8 0.0
29/08:00am 1.9 0.0 0.6 91 0.5 CALM 0 0 0 0 1024.3 1024.6 0.0
29/07:30am -0.5 - - - - CALM 0 0 0 0 1024.2 1024.5 0.0
29/07:00am -2.1 - - - - CALM 0 0 0 0 1024.1 1024.4 0.0
29/06:30am -2.2 - - - - CALM 0 0 0 0 1024.0 1024.3 0.0
29/06:00am -2.2 - - - - CALM 0 0 0 0 1023.7 1024.0 0.0
29/05:30am -2.2 - - - - CALM 0 0 0 0 1023.4 1023.6 0.0
29/05:00am -2.1 - - - - CALM 0 0 0 0 1023.1 1023.4 0.0
29/04:30am -1.7 - - - - CALM 0 0 0 0 1023.0 1023.3 0.0
29/04:00am -1.7 - - - - CALM 0 0 0 0 1022.9 1023.2 0.0
29/03:30am -1.4 - - - - CALM 0 0 0 0 1023.2 1023.5 0.0
29/03:00am -1.1 - - - - CALM 0 0 0 0 1023.2 1023.5 0.0
29/02:30am -0.9 - - - - CALM 0 0 0 0 1023.5 1023.7 0.0
29/02:00am -0.6 - - - - CALM 0 0 0 0 1023.6 1023.8 0.0
29/01:30am -0.5 - - - - ESE 2 4 1 2 1023.8 1024.1 0.0
29/01:00am -0.4 - - - - CALM 0 2 0 1 1023.9 1024.2 0.0
29/12:30am 0.1 - - - - N 4 6 2 3 1023.9 1024.2 0.0
29/12:00am 0.3 - - - - NE 2 4 1 2 1024.0 1024.3 0.0
 
Date/Time
EST
Temp
°C
App
Temp
°C
Dew
Point
°C
Rel
Hum
%
Delta-T
°C
Wind Press
QNH
hPa
Press
MSL
hPa
Rain since
9am
mm
Dir  Spd
km/h
Gust
km/h
Spd
kts
Gust
kts
28/11:30pm 0.5 - - - - ENE 4 6 2 3 1024.2 1024.5 0.0
28/11:00pm 0.6 -2.2 -0.2 94 0.3 ENE 4 6 2 3 1024.3 1024.6 0.0
28/10:30pm 0.7 -1.2 0.4 98 0.1 CALM 0 0 0 0 1024.4 1024.7 0.0
28/10:00pm 1.4 -0.6 0.1 91 0.5 CALM 0 0 0 0 1024.6 1024.8 0.0
28/09:30pm 1.7 -0.2 0.4 91 0.5 CALM 0 0 0 0 1024.8 1025.1 0.0
28/09:00pm 2.2 0.4 0.9 91 0.5 CALM 0 0 0 0 1024.9 1025.2 0.0
28/08:30pm 2.8 0.8 0.0 82 1.1 CALM 0 0 0 0 1024.8 1025.1 0.0
28/08:00pm 3.5 1.5 0.2 79 1.3 CALM 0 0 0 0 1024.7 1025.0 0.0
28/07:30pm 4.5 2.6 0.5 75 1.6 CALM 0 0 0 0 1024.6 1024.8 0.0
28/07:00pm 5.0 3.1 0.3 71 1.9 CALM 0 0 0 0 1024.3 1024.6 0.0
28/06:30pm 6.1 4.2 0.5 67 2.3 CALM 0 2 0 1 1024.2 1024.5 0.0
28/06:00pm 8.2 6.4 0.9 60 3.1 CALM 0 4 0 2 1023.9 1024.2 0.0
28/05:30pm 10.3 8.3 -0.1 48 4.4 CALM 0 2 0 1 1023.7 1024.0 0.0
28/05:00pm 12.7 9.4 -1.0 38 5.8 WSW 6 9 3 5 1023.2 1023.5 0.0
28/04:30pm 14.5 11.3 -0.7 35 6.6 WSW 6 9 3 5 1023.1 1023.4 0.0
28/04:00pm 15.7 12.3 -1.8 30 7.5 SW 6 7 3 4 1023.0 1023.3 0.0
28/03:30pm 16.4 13.0 -2.3 27 8.0 W 6 9 3 5 1023.0 1023.3 0.0
28/03:00pm 16.5 13.0 -6.0 21 8.9 SW 4 7 2 4 1022.9 1023.2 0.0
28/02:30pm 15.9 11.7 -7.4 19 8.9 SW 7 15 4 8 1022.8 1023.1 0.0
28/02:00pm 15.8 12.1 -4.8 24 8.3 SW 6 11 3 6 1022.9 1023.2 0.0
28/01:30pm 15.8 12.6 -3.5 26 8.0 S 4 7 2 4 1023.2 1023.5 0.0
28/01:00pm 15.8 12.3 -3.1 27 7.9 ENE 6 9 3 5 1023.5 1023.7 0.0
28/12:30pm 14.9 12.0 -4.1 26 7.7 W 2 4 1 2 1023.9 1024.2 0.0
28/12:00pm 14.3 10.8 -2.9 30 7.1 NE 6 13 3 7 1024.2 1024.5 0.0
28/11:30am 14.4 10.7 -4.3 27 7.5 E 6 15 3 8 1024.8 1025.1 0.0
28/11:00am 13.6 9.8 -5.5 26 7.4 E 6 15 3 8 1025.0 1025.3 0.0
28/10:30am 13.1 9.1 -5.2 27 7.1 ENE 7 13 4 7 1025.3 1025.6 0.0
28/10:00am 12.0 8.2 -3.6 33 6.2 E 7 15 4 8 1025.4 1025.7 0.0
28/09:30am 8.8 6.1 0.2 55 3.6 WSW 4 6 2 3 1025.3 1025.6 0.0
28/09:00am 6.6 3.5 0.3 64 2.6 SW 6 9 3 5 1025.2 1025.5 0.0
28/08:30am 4.6 2.0 1.2 78 1.4 SW 4 4 2 2 1024.9 1025.2 0.0
28/08:00am 2.2 -0.4 0.9 91 0.5 WSW 4 4 2 2 1024.7 1025.0 0.0
28/07:30am -0.2 - - - - WSW 4 6 2 3 1024.1 1024.4 0.0
28/07:00am -1.8 - - - - CALM 0 0 0 0 1023.7 1024.0 0.0
28/06:30am -1.6 - - - - CALM 0 0 0 0 1023.4 1023.6 0.0
28/06:00am -1.0 - - - - CALM 0 0 0 0 1023.0 1023.3 0.0
28/05:30am -0.8 - - - - W 2 4 1 2 1022.8 1023.1 0.0
28/05:00am -0.3 - - - - CALM 0 0 0 0 1022.5 1022.7 0.0
28/04:30am 0.5 -1.5 0.0 96 0.2 CALM 0 0 0 0 1022.4 1022.6 0.0
28/04:00am 1.7 -0.9 0.9 94 0.3 SW 4 4 2 2 1022.4 1022.6 0.0
28/03:30am 3.2 0.3 1.5 89 0.7 SW 6 9 3 5 1022.4 1022.6 0.0
28/03:00am 3.6 0.2 1.7 87 0.8 SW 9 11 5 6 1022.2 1022.4 0.0
28/02:30am 2.0 -0.9 1.5 96 0.2 WSW 6 7 3 4 1022.5 1022.7 0.0
28/02:00am 2.9 1.1 0.9 87 0.8 CALM 0 0 0 0 1022.5 1022.7 0.0
28/01:30am 4.3 1.9 1.9 84 1.0 SSW 4 9 2 5 1022.6 1022.8 0.0
28/01:00am 5.9 2.4 1.4 73 1.9 SW 9 13 5 7 1022.4 1022.6 0.0
28/12:30am 6.5 2.7 1.8 72 2.0 WSW 11 17 6 9 1022.3 1022.5 0.0
28/12:00am 7.0 2.5 1.9 70 2.2 SW 15 24 8 13 1022.0 1022.3 0.0
 
Date/Time
EST
Temp
°C
App
Temp
°C
Dew
Point
°C
Rel
Hum
%
Delta-T
°C
Wind Press
QNH
hPa
Press
MSL
hPa
Rain since
9am
mm
Dir  Spd
km/h
Gust
km/h
Spd
kts
Gust
kts
27/11:30pm 7.1 1.8 1.7 68 2.3 SW 19 30 10 16 1022.0 1022.3 0.0
27/11:00pm 7.3 1.9 1.2 65 2.6 SW 19 28 10 15 1022.0 1022.3 0.0
27/10:30pm 7.6 2.6 1.3 64 2.7 SW 17 28 9 15 1022.2 1022.4 0.0
27/10:00pm 7.7 3.0 1.1 63 2.8 WSW 15 24 8 13 1022.2 1022.4 0.0
27/09:30pm 7.7 3.4 1.1 63 2.8 WSW 13 22 7 12 1022.3 1022.5 0.0
27/09:00pm 7.7 3.0 0.8 61 2.9 SW 15 24 8 13 1022.0 1022.3 0.0

Other Formats:

Comma delimited format used in spreadsheet applications
http://www.bom.gov.au/fwo/IDN60801/IDN60801.94553.axf

JavaScript Object Notation format (JSON) in row-major order
http://www.bom.gov.au/fwo/IDN60801/IDN60801.94553.json